sensor_id;sensor_type;location;lat;lon;timestamp;temperature;humidity
48860;DHT22;34679;51.436;-2.518;2023-05-07T00:02:24;12.00;99.90
48860;DHT22;34679;51.436;-2.518;2023-05-07T00:04:51;11.90;99.90
48860;DHT22;34679;51.436;-2.518;2023-05-07T00:07:17;11.90;99.90
48860;DHT22;34679;51.436;-2.518;2023-05-07T00:09:43;11.90;99.90
48860;DHT22;34679;51.436;-2.518;2023-05-07T00:12:09;11.90;99.90
48860;DHT22;34679;51.436;-2.518;2023-05-07T00:14:35;11.90;99.90
48860;DHT22;34679;51.436;-2.518;2023-05-07T00:17:01;11.90;99.90
48860;DHT22;34679;51.436;-2.518;2023-05-07T00:19:26;11.90;99.90
48860;DHT22;34679;51.436;-2.518;2023-05-07T00:21:52;11.90;99.90
48860;DHT22;34679;51.436;-2.518;2023-05-07T00:24:21;11.90;99.90
48860;DHT22;34679;51.436;-2.518;2023-05-07T00:26:47;11.90;99.90
48860;DHT22;34679;51.436;-2.518;2023-05-07T00:29:13;11.90;99.90
48860;DHT22;34679;51.436;-2.518;2023-05-07T00:31:38;11.90;99.90
48860;DHT22;34679;51.436;-2.518;2023-05-07T00:34:04;11.90;99.90
48860;DHT22;34679;51.436;-2.518;2023-05-07T00:36:30;11.90;99.90
48860;DHT22;34679;51.436;-2.518;2023-05-07T00:38:57;11.90;99.90
48860;DHT22;34679;51.436;-2.518;2023-05-07T00:41:24;11.90;99.90
48860;DHT22;34679;51.436;-2.518;2023-05-07T00:43:50;11.90;99.90
48860;DHT22;34679;51.436;-2.518;2023-05-07T00:46:17;11.90;99.90
48860;DHT22;34679;51.436;-2.518;2023-05-07T00:48:44;11.80;99.90
48860;DHT22;34679;51.436;-2.518;2023-05-07T00:51:10;11.80;99.90
48860;DHT22;34679;51.436;-2.518;2023-05-07T00:53:37;11.70;99.90
48860;DHT22;34679;51.436;-2.518;2023-05-07T00:56:03;11.70;99.90
48860;DHT22;34679;51.436;-2.518;2023-05-07T00:58:30;11.70;99.90
48860;DHT22;34679;51.436;-2.518;2023-05-07T01:00:56;11.70;99.90
48860;DHT22;34679;51.436;-2.518;2023-05-07T01:03:21;11.70;99.90
48860;DHT22;34679;51.436;-2.518;2023-05-07T01:05:48;11.70;99.90
48860;DHT22;34679;51.436;-2.518;2023-05-07T01:08:14;11.70;99.90
48860;DHT22;34679;51.436;-2.518;2023-05-07T01:10:41;11.70;99.90
48860;DHT22;34679;51.436;-2.518;2023-05-07T01:13:12;11.70;99.90
48860;DHT22;34679;51.436;-2.518;2023-05-07T01:15:38;11.70;99.90
48860;DHT22;34679;51.436;-2.518;2023-05-07T01:18:06;11.70;99.90
48860;DHT22;34679;51.436;-2.518;2023-05-07T01:20:32;11.70;99.90
48860;DHT22;34679;51.436;-2.518;2023-05-07T01:23:00;11.70;99.90
48860;DHT22;34679;51.436;-2.518;2023-05-07T01:25:26;11.70;99.90
48860;DHT22;34679;51.436;-2.518;2023-05-07T01:27:52;11.60;99.90
48860;DHT22;34679;51.436;-2.518;2023-05-07T01:30:18;11.70;99.90
48860;DHT22;34679;51.436;-2.518;2023-05-07T01:33:06;11.70;99.90
48860;DHT22;34679;51.436;-2.518;2023-05-07T01:35:39;11.70;99.90
48860;DHT22;34679;51.436;-2.518;2023-05-07T01:38:06;11.70;99.90
48860;DHT22;34679;51.436;-2.518;2023-05-07T01:40:32;11.60;99.90
48860;DHT22;34679;51.436;-2.518;2023-05-07T01:43:00;11.60;99.90
48860;DHT22;34679;51.436;-2.518;2023-05-07T01:45:27;11.60;99.90
48860;DHT22;34679;51.436;-2.518;2023-05-07T01:47:53;11.60;99.90
48860;DHT22;34679;51.436;-2.518;2023-05-07T01:50:20;11.60;99.90
48860;DHT22;34679;51.436;-2.518;2023-05-07T01:52:47;11.50;99.90
48860;DHT22;34679;51.436;-2.518;2023-05-07T01:55:14;11.50;99.90
48860;DHT22;34679;51.436;-2.518;2023-05-07T01:57:40;11.40;99.90
48860;DHT22;34679;51.436;-2.518;2023-05-07T02:00:07;11.40;99.90
48860;DHT22;34679;51.436;-2.518;2023-05-07T02:02:34;11.40;99.90
48860;DHT22;34679;51.436;-2.518;2023-05-07T02:04:59;11.40;99.90
48860;DHT22;34679;51.436;-2.518;2023-05-07T02:07:26;11.40;99.90
48860;DHT22;34679;51.436;-2.518;2023-05-07T02:09:52;11.40;99.90
48860;DHT22;34679;51.436;-2.518;2023-05-07T02:12:17;11.50;99.90
48860;DHT22;34679;51.436;-2.518;2023-05-07T02:14:43;11.50;99.90
48860;DHT22;34679;51.436;-2.518;2023-05-07T02:17:09;11.40;99.90
48860;DHT22;34679;51.436;-2.518;2023-05-07T02:19:34;11.40;99.90
48860;DHT22;34679;51.436;-2.518;2023-05-07T02:22:00;11.40;99.90
48860;DHT22;34679;51.436;-2.518;2023-05-07T02:24:26;11.50;99.90
48860;DHT22;34679;51.436;-2.518;2023-05-07T02:26:53;11.40;99.90
48860;DHT22;34679;51.436;-2.518;2023-05-07T02:29:19;11.40;99.90
48860;DHT22;34679;51.436;-2.518;2023-05-07T02:31:44;11.40;99.90
48860;DHT22;34679;51.436;-2.518;2023-05-07T02:34:10;11.40;99.90
48860;DHT22;34679;51.436;-2.518;2023-05-07T02:36:36;11.30;99.90
48860;DHT22;34679;51.436;-2.518;2023-05-07T02:39:02;11.40;99.90
48860;DHT22;34679;51.436;-2.518;2023-05-07T02:41:28;11.40;99.90
48860;DHT22;34679;51.436;-2.518;2023-05-07T02:43:53;11.40;99.90
48860;DHT22;34679;51.436;-2.518;2023-05-07T02:46:19;11.40;99.90
48860;DHT22;34679;51.436;-2.518;2023-05-07T02:48:45;11.40;99.90
48860;DHT22;34679;51.436;-2.518;2023-05-07T02:51:10;11.40;99.90
48860;DHT22;34679;51.436;-2.518;2023-05-07T02:53:36;11.40;99.90
48860;DHT22;34679;51.436;-2.518;2023-05-07T02:56:02;11.40;99.90
48860;DHT22;34679;51.436;-2.518;2023-05-07T02:58:28;11.40;99.90
48860;DHT22;34679;51.436;-2.518;2023-05-07T03:00:54;11.40;99.90
48860;DHT22;34679;51.436;-2.518;2023-05-07T03:03:20;11.30;99.90
48860;DHT22;34679;51.436;-2.518;2023-05-07T03:05:46;11.30;99.90
48860;DHT22;34679;51.436;-2.518;2023-05-07T03:08:11;11.30;99.90
48860;DHT22;34679;51.436;-2.518;2023-05-07T03:10:37;11.30;99.90
48860;DHT22;34679;51.436;-2.518;2023-05-07T03:13:03;11.30;99.90
48860;DHT22;34679;51.436;-2.518;2023-05-07T03:15:29;11.30;99.90
48860;DHT22;34679;51.436;-2.518;2023-05-07T03:17:55;11.30;99.90
48860;DHT22;34679;51.436;-2.518;2023-05-07T03:20:21;11.30;99.90
48860;DHT22;34679;51.436;-2.518;2023-05-07T03:22:46;11.30;99.90
48860;DHT22;34679;51.436;-2.518;2023-05-07T03:25:12;11.30;99.90
48860;DHT22;34679;51.436;-2.518;2023-05-07T03:27:39;11.40;99.90
48860;DHT22;34679;51.436;-2.518;2023-05-07T03:30:05;11.40;99.90
48860;DHT22;34679;51.436;-2.518;2023-05-07T03:32:32;11.40;99.90
48860;DHT22;34679;51.436;-2.518;2023-05-07T03:34:57;11.40;99.90
48860;DHT22;34679;51.436;-2.518;2023-05-07T03:37:23;11.40;99.90
48860;DHT22;34679;51.436;-2.518;2023-05-07T03:39:49;11.40;99.90
48860;DHT22;34679;51.436;-2.518;2023-05-07T03:42:15;11.40;99.90
48860;DHT22;34679;51.436;-2.518;2023-05-07T03:44:40;11.40;99.90
48860;DHT22;34679;51.436;-2.518;2023-05-07T03:47:06;11.30;99.90
48860;DHT22;34679;51.436;-2.518;2023-05-07T03:49:32;11.30;99.90
48860;DHT22;34679;51.436;-2.518;2023-05-07T03:51:57;11.30;99.90
48860;DHT22;34679;51.436;-2.518;2023-05-07T03:54:23;11.30;99.90
48860;DHT22;34679;51.436;-2.518;2023-05-07T03:56:49;11.30;99.90
48860;DHT22;34679;51.436;-2.518;2023-05-07T03:59:14;11.30;99.90
48860;DHT22;34679;51.436;-2.518;2023-05-07T04:01:40;11.20;99.90
48860;DHT22;34679;51.436;-2.518;2023-05-07T04:04:06;11.20;99.90
48860;DHT22;34679;51.436;-2.518;2023-05-07T04:06:31;11.30;99.90
48860;DHT22;34679;51.436;-2.518;2023-05-07T04:08:57;11.30;99.90
48860;DHT22;34679;51.436;-2.518;2023-05-07T04:11:23;11.30;99.90
48860;DHT22;34679;51.436;-2.518;2023-05-07T04:13:49;11.30;99.90
48860;DHT22;34679;51.436;-2.518;2023-05-07T04:16:14;11.30;99.90
48860;DHT22;34679;51.436;-2.518;2023-05-07T04:18:41;11.30;99.90
48860;DHT22;34679;51.436;-2.518;2023-05-07T04:21:20;11.30;99.90
48860;DHT22;34679;51.436;-2.518;2023-05-07T04:23:47;11.30;99.90
48860;DHT22;34679;51.436;-2.518;2023-05-07T04:26:13;11.30;99.90
48860;DHT22;34679;51.436;-2.518;2023-05-07T04:28:39;11.30;99.90
48860;DHT22;34679;51.436;-2.518;2023-05-07T04:31:05;11.40;99.90
48860;DHT22;34679;51.436;-2.518;2023-05-07T04:33:31;11.30;99.90
48860;DHT22;34679;51.436;-2.518;2023-05-07T04:35:58;11.30;99.90
48860;DHT22;34679;51.436;-2.518;2023-05-07T04:38:30;11.30;99.90
48860;DHT22;34679;51.436;-2.518;2023-05-07T04:40:58;11.40;99.90
48860;DHT22;34679;51.436;-2.518;2023-05-07T04:43:24;11.40;99.90
48860;DHT22;34679;51.436;-2.518;2023-05-07T04:45:51;11.40;99.90
48860;DHT22;34679;51.436;-2.518;2023-05-07T04:48:17;11.30;99.90
48860;DHT22;34679;51.436;-2.518;2023-05-07T04:50:47;11.40;99.90
48860;DHT22;34679;51.436;-2.518;2023-05-07T04:53:12;11.40;99.90
48860;DHT22;34679;51.436;-2.518;2023-05-07T04:55:38;11.40;99.90
48860;DHT22;34679;51.436;-2.518;2023-05-07T04:58:03;11.40;99.90
48860;DHT22;34679;51.436;-2.518;2023-05-07T05:00:30;11.40;99.90
48860;DHT22;34679;51.436;-2.518;2023-05-07T05:02:56;11.40;99.90
48860;DHT22;34679;51.436;-2.518;2023-05-07T05:05:21;11.40;99.90
48860;DHT22;34679;51.436;-2.518;2023-05-07T05:07:47;11.40;99.90
48860;DHT22;34679;51.436;-2.518;2023-05-07T05:10:13;11.40;99.90
48860;DHT22;34679;51.436;-2.518;2023-05-07T05:12:39;11.30;99.90
48860;DHT22;34679;51.436;-2.518;2023-05-07T05:15:05;11.40;99.90
48860;DHT22;34679;51.436;-2.518;2023-05-07T05:17:31;11.50;99.90
48860;DHT22;34679;51.436;-2.518;2023-05-07T05:19:57;11.30;99.90
48860;DHT22;34679;51.436;-2.518;2023-05-07T05:22:22;11.40;99.90
48860;DHT22;34679;51.436;-2.518;2023-05-07T05:24:48;11.40;99.90
48860;DHT22;34679;51.436;-2.518;2023-05-07T05:27:14;11.30;99.90
48860;DHT22;34679;51.436;-2.518;2023-05-07T05:29:39;11.30;99.90
48860;DHT22;34679;51.436;-2.518;2023-05-07T05:32:05;11.30;99.90
48860;DHT22;34679;51.436;-2.518;2023-05-07T05:34:30;11.20;99.90
48860;DHT22;34679;51.436;-2.518;2023-05-07T05:36:58;11.20;99.90
48860;DHT22;34679;51.436;-2.518;2023-05-07T05:39:24;11.30;99.90
48860;DHT22;34679;51.436;-2.518;2023-05-07T05:41:50;11.30;99.90
48860;DHT22;34679;51.436;-2.518;2023-05-07T05:44:15;11.40;99.90
48860;DHT22;34679;51.436;-2.518;2023-05-07T05:46:41;11.40;99.90
48860;DHT22;34679;51.436;-2.518;2023-05-07T05:49:07;11.50;99.90
48860;DHT22;34679;51.436;-2.518;2023-05-07T05:51:33;11.60;99.90
48860;DHT22;34679;51.436;-2.518;2023-05-07T05:53:59;11.50;99.90
48860;DHT22;34679;51.436;-2.518;2023-05-07T05:56:25;11.40;99.90
48860;DHT22;34679;51.436;-2.518;2023-05-07T05:58:51;11.40;99.90
48860;DHT22;34679;51.436;-2.518;2023-05-07T06:01:17;11.40;99.90
48860;DHT22;34679;51.436;-2.518;2023-05-07T06:03:43;11.50;99.90
48860;DHT22;34679;51.436;-2.518;2023-05-07T06:06:09;11.70;99.90
48860;DHT22;34679;51.436;-2.518;2023-05-07T06:08:35;11.60;99.90
48860;DHT22;34679;51.436;-2.518;2023-05-07T06:11:01;11.60;99.90
48860;DHT22;34679;51.436;-2.518;2023-05-07T06:13:28;11.60;99.90
48860;DHT22;34679;51.436;-2.518;2023-05-07T06:15:53;11.60;99.90
48860;DHT22;34679;51.436;-2.518;2023-05-07T06:18:19;11.90;99.90
48860;DHT22;34679;51.436;-2.518;2023-05-07T06:20:45;12.10;99.90
48860;DHT22;34679;51.436;-2.518;2023-05-07T06:23:10;12.80;99.90
48860;DHT22;34679;51.436;-2.518;2023-05-07T06:25:36;13.00;99.90
48860;DHT22;34679;51.436;-2.518;2023-05-07T06:28:02;13.60;99.90
48860;DHT22;34679;51.436;-2.518;2023-05-07T06:30:28;14.50;99.90
48860;DHT22;34679;51.436;-2.518;2023-05-07T06:32:53;15.40;99.90
48860;DHT22;34679;51.436;-2.518;2023-05-07T06:35:19;16.20;99.90
48860;DHT22;34679;51.436;-2.518;2023-05-07T06:37:45;17.10;99.90
48860;DHT22;34679;51.436;-2.518;2023-05-07T06:40:11;18.00;99.90
48860;DHT22;34679;51.436;-2.518;2023-05-07T06:42:37;18.90;99.90
48860;DHT22;34679;51.436;-2.518;2023-05-07T06:45:03;19.50;99.90
48860;DHT22;34679;51.436;-2.518;2023-05-07T06:47:29;19.80;99.90
48860;DHT22;34679;51.436;-2.518;2023-05-07T06:49:55;19.00;99.90
48860;DHT22;34679;51.436;-2.518;2023-05-07T06:52:21;18.90;99.90
48860;DHT22;34679;51.436;-2.518;2023-05-07T06:54:46;19.20;99.90
48860;DHT22;34679;51.436;-2.518;2023-05-07T06:57:12;20.30;99.90
48860;DHT22;34679;51.436;-2.518;2023-05-07T06:59:37;21.30;99.90
48860;DHT22;34679;51.436;-2.518;2023-05-07T07:02:03;22.20;99.90
48860;DHT22;34679;51.436;-2.518;2023-05-07T07:04:29;22.70;99.90
48860;DHT22;34679;51.436;-2.518;2023-05-07T07:06:55;22.80;99.90
48860;DHT22;34679;51.436;-2.518;2023-05-07T07:09:22;22.90;99.90
48860;DHT22;34679;51.436;-2.518;2023-05-07T07:11:48;23.20;99.90
48860;DHT22;34679;51.436;-2.518;2023-05-07T07:14:13;23.20;99.90
48860;DHT22;34679;51.436;-2.518;2023-05-07T07:16:39;23.00;99.90
48860;DHT22;34679;51.436;-2.518;2023-05-07T07:19:06;23.10;99.90
48860;DHT22;34679;51.436;-2.518;2023-05-07T07:21:31;22.90;99.90
48860;DHT22;34679;51.436;-2.518;2023-05-07T07:23:57;22.70;99.90
48860;DHT22;34679;51.436;-2.518;2023-05-07T07:26:23;22.00;99.90
48860;DHT22;34679;51.436;-2.518;2023-05-07T07:28:49;22.20;99.90
48860;DHT22;34679;51.436;-2.518;2023-05-07T07:31:14;21.30;99.90
48860;DHT22;34679;51.436;-2.518;2023-05-07T07:33:40;21.20;99.90
48860;DHT22;34679;51.436;-2.518;2023-05-07T07:36:07;22.30;99.90
48860;DHT22;34679;51.436;-2.518;2023-05-07T07:38:33;22.90;99.90
48860;DHT22;34679;51.436;-2.518;2023-05-07T07:41:00;23.30;99.90
48860;DHT22;34679;51.436;-2.518;2023-05-07T07:43:25;22.80;99.90
48860;DHT22;34679;51.436;-2.518;2023-05-07T07:45:51;22.30;99.90
48860;DHT22;34679;51.436;-2.518;2023-05-07T07:48:17;21.60;99.90
48860;DHT22;34679;51.436;-2.518;2023-05-07T07:50:42;20.70;99.90
48860;DHT22;34679;51.436;-2.518;2023-05-07T07:53:08;20.10;99.90
48860;DHT22;34679;51.436;-2.518;2023-05-07T07:55:38;18.50;99.90
48860;DHT22;34679;51.436;-2.518;2023-05-07T07:58:05;18.10;99.90
48860;DHT22;34679;51.436;-2.518;2023-05-07T08:00:31;17.80;99.90
48860;DHT22;34679;51.436;-2.518;2023-05-07T08:02:56;18.30;99.90
48860;DHT22;34679;51.436;-2.518;2023-05-07T08:05:23;18.50;99.90
48860;DHT22;34679;51.436;-2.518;2023-05-07T08:07:48;18.60;99.90
48860;DHT22;34679;51.436;-2.518;2023-05-07T08:10:18;18.10;99.90
48860;DHT22;34679;51.436;-2.518;2023-05-07T08:12:48;17.60;99.90
48860;DHT22;34679;51.436;-2.518;2023-05-07T08:15:14;17.50;99.90
48860;DHT22;34679;51.436;-2.518;2023-05-07T08:17:40;17.30;99.90
48860;DHT22;34679;51.436;-2.518;2023-05-07T08:20:07;17.10;99.90
48860;DHT22;34679;51.436;-2.518;2023-05-07T08:22:36;17.50;99.90
48860;DHT22;34679;51.436;-2.518;2023-05-07T08:25:02;17.60;99.90
48860;DHT22;34679;51.436;-2.518;2023-05-07T08:27:28;17.60;99.90
48860;DHT22;34679;51.436;-2.518;2023-05-07T08:29:54;17.80;99.90
48860;DHT22;34679;51.436;-2.518;2023-05-07T08:32:20;18.00;99.90
48860;DHT22;34679;51.436;-2.518;2023-05-07T08:34:46;17.60;99.90
48860;DHT22;34679;51.436;-2.518;2023-05-07T08:37:12;17.50;99.90
48860;DHT22;34679;51.436;-2.518;2023-05-07T08:39:38;17.40;99.90
48860;DHT22;34679;51.436;-2.518;2023-05-07T08:42:04;17.20;99.90
48860;DHT22;34679;51.436;-2.518;2023-05-07T08:44:33;17.50;99.90
48860;DHT22;34679;51.436;-2.518;2023-05-07T08:47:01;17.80;99.90
48860;DHT22;34679;51.436;-2.518;2023-05-07T08:49:27;17.80;99.90
48860;DHT22;34679;51.436;-2.518;2023-05-07T08:51:53;17.10;99.90
48860;DHT22;34679;51.436;-2.518;2023-05-07T08:54:20;17.00;99.90
48860;DHT22;34679;51.436;-2.518;2023-05-07T08:56:46;17.20;99.90
48860;DHT22;34679;51.436;-2.518;2023-05-07T08:59:12;17.00;99.90
48860;DHT22;34679;51.436;-2.518;2023-05-07T09:01:38;17.60;99.90
48860;DHT22;34679;51.436;-2.518;2023-05-07T09:04:04;18.10;99.90
48860;DHT22;34679;51.436;-2.518;2023-05-07T09:06:31;18.50;99.90
48860;DHT22;34679;51.436;-2.518;2023-05-07T09:08:56;18.30;99.90
48860;DHT22;34679;51.436;-2.518;2023-05-07T09:11:24;18.20;99.90
48860;DHT22;34679;51.436;-2.518;2023-05-07T09:13:54;18.30;99.90
48860;DHT22;34679;51.436;-2.518;2023-05-07T09:16:21;18.30;99.90
48860;DHT22;34679;51.436;-2.518;2023-05-07T09:18:48;18.10;99.90
48860;DHT22;34679;51.436;-2.518;2023-05-07T09:21:20;17.90;99.90
48860;DHT22;34679;51.436;-2.518;2023-05-07T09:23:50;17.50;99.90
48860;DHT22;34679;51.436;-2.518;2023-05-07T09:26:16;18.00;99.90
48860;DHT22;34679;51.436;-2.518;2023-05-07T09:28:41;18.00;99.90
48860;DHT22;34679;51.436;-2.518;2023-05-07T09:31:08;18.20;99.90
48860;DHT22;34679;51.436;-2.518;2023-05-07T09:33:34;18.50;99.90
48860;DHT22;34679;51.436;-2.518;2023-05-07T09:36:08;18.90;99.90
48860;DHT22;34679;51.436;-2.518;2023-05-07T09:38:35;19.30;99.90
48860;DHT22;34679;51.436;-2.518;2023-05-07T09:41:12;19.00;99.90
48860;DHT22;34679;51.436;-2.518;2023-05-07T09:43:39;18.60;99.90
48860;DHT22;34679;51.436;-2.518;2023-05-07T09:46:13;18.60;99.90
48860;DHT22;34679;51.436;-2.518;2023-05-07T09:48:41;19.20;99.90
48860;DHT22;34679;51.436;-2.518;2023-05-07T09:51:18;20.00;99.90
48860;DHT22;34679;51.436;-2.518;2023-05-07T09:53:47;19.70;99.90
48860;DHT22;34679;51.436;-2.518;2023-05-07T09:56:14;18.70;99.90
48860;DHT22;34679;51.436;-2.518;2023-05-07T09:58:43;18.70;99.90
48860;DHT22;34679;51.436;-2.518;2023-05-07T10:01:11;18.70;99.90
48860;DHT22;34679;51.436;-2.518;2023-05-07T10:03:40;18.80;99.90
48860;DHT22;34679;51.436;-2.518;2023-05-07T10:06:08;19.00;99.90
48860;DHT22;34679;51.436;-2.518;2023-05-07T10:08:35;18.80;99.90
48860;DHT22;34679;51.436;-2.518;2023-05-07T10:11:01;19.00;99.90
48860;DHT22;34679;51.436;-2.518;2023-05-07T10:13:27;19.80;99.90
48860;DHT22;34679;51.436;-2.518;2023-05-07T10:15:53;20.60;99.90
48860;DHT22;34679;51.436;-2.518;2023-05-07T10:18:20;21.30;99.90
48860;DHT22;34679;51.436;-2.518;2023-05-07T10:20:50;20.70;99.90
48860;DHT22;34679;51.436;-2.518;2023-05-07T10:23:19;19.40;99.90
48860;DHT22;34679;51.436;-2.518;2023-05-07T10:25:47;19.30;99.90
48860;DHT22;34679;51.436;-2.518;2023-05-07T10:28:15;19.70;99.90
48860;DHT22;34679;51.436;-2.518;2023-05-07T10:31:17;19.80;99.90
48860;DHT22;34679;51.436;-2.518;2023-05-07T10:33:47;20.00;99.90
48860;DHT22;34679;51.436;-2.518;2023-05-07T10:36:14;20.10;99.90
48860;DHT22;34679;51.436;-2.518;2023-05-07T10:38:40;20.70;99.90
48860;DHT22;34679;51.436;-2.518;2023-05-07T10:41:06;20.20;99.90
48860;DHT22;34679;51.436;-2.518;2023-05-07T10:43:42;20.20;99.90
48860;DHT22;34679;51.436;-2.518;2023-05-07T10:46:16;20.20;99.90
48860;DHT22;34679;51.436;-2.518;2023-05-07T10:51:28;20.40;99.90
48860;DHT22;34679;51.436;-2.518;2023-05-07T10:56:39;20.30;99.90
48860;DHT22;34679;51.436;-2.518;2023-05-07T11:02:02;19.50;99.90
48860;DHT22;34679;51.436;-2.518;2023-05-07T11:04:30;19.50;99.90
48860;DHT22;34679;51.436;-2.518;2023-05-07T11:15:10;19.00;99.90
48860;DHT22;34679;51.436;-2.518;2023-05-07T11:17:58;19.20;99.90
48860;DHT22;34679;51.436;-2.518;2023-05-07T11:26:08;18.90;99.90
48860;DHT22;34679;51.436;-2.518;2023-05-07T11:28:40;19.00;99.90
48860;DHT22;34679;51.436;-2.518;2023-05-07T11:31:07;19.00;99.90
48860;DHT22;34679;51.436;-2.518;2023-05-07T11:33:33;18.90;99.90
48860;DHT22;34679;51.436;-2.518;2023-05-07T11:36:01;19.00;99.90
48860;DHT22;34679;51.436;-2.518;2023-05-07T11:38:29;19.20;99.90
48860;DHT22;34679;51.436;-2.518;2023-05-07T11:40:59;19.70;99.90
48860;DHT22;34679;51.436;-2.518;2023-05-07T11:43:26;19.80;99.90
48860;DHT22;34679;51.436;-2.518;2023-05-07T11:45:53;19.60;99.90
48860;DHT22;34679;51.436;-2.518;2023-05-07T11:48:21;19.90;99.90
48860;DHT22;34679;51.436;-2.518;2023-05-07T11:51:00;20.00;99.90
48860;DHT22;34679;51.436;-2.518;2023-05-07T11:53:37;20.20;99.90
48860;DHT22;34679;51.436;-2.518;2023-05-07T11:56:07;20.80;99.90
48860;DHT22;34679;51.436;-2.518;2023-05-07T11:58:33;21.40;99.90
48860;DHT22;34679;51.436;-2.518;2023-05-07T12:00:59;21.70;99.90
48860;DHT22;34679;51.436;-2.518;2023-05-07T12:03:24;21.70;99.90
48860;DHT22;34679;51.436;-2.518;2023-05-07T12:05:50;21.80;99.90
48860;DHT22;34679;51.436;-2.518;2023-05-07T12:08:17;21.80;99.90
48860;DHT22;34679;51.436;-2.518;2023-05-07T12:10:44;21.90;99.90
48860;DHT22;34679;51.436;-2.518;2023-05-07T12:13:20;22.10;99.90
48860;DHT22;34679;51.436;-2.518;2023-05-07T12:15:46;21.10;99.90
48860;DHT22;34679;51.436;-2.518;2023-05-07T12:18:12;20.50;99.90
48860;DHT22;34679;51.436;-2.518;2023-05-07T12:20:39;20.30;99.90
48860;DHT22;34679;51.436;-2.518;2023-05-07T12:23:05;20.40;99.90
48860;DHT22;34679;51.436;-2.518;2023-05-07T12:25:41;20.20;99.90
48860;DHT22;34679;51.436;-2.518;2023-05-07T12:28:16;20.40;99.90
48860;DHT22;34679;51.436;-2.518;2023-05-07T12:30:47;19.60;99.90
48860;DHT22;34679;51.436;-2.518;2023-05-07T12:33:17;19.00;99.90
48860;DHT22;34679;51.436;-2.518;2023-05-07T12:35:43;18.80;99.90
48860;DHT22;34679;51.436;-2.518;2023-05-07T12:38:10;19.00;99.90
48860;DHT22;34679;51.436;-2.518;2023-05-07T12:43:06;20.10;99.90
48860;DHT22;34679;51.436;-2.518;2023-05-07T12:45:37;20.40;99.90
48860;DHT22;34679;51.436;-2.518;2023-05-07T12:48:04;20.30;99.90
48860;DHT22;34679;51.436;-2.518;2023-05-07T12:50:33;20.20;99.90
48860;DHT22;34679;51.436;-2.518;2023-05-07T12:52:59;20.50;99.90
48860;DHT22;34679;51.436;-2.518;2023-05-07T12:55:25;20.60;99.90
48860;DHT22;34679;51.436;-2.518;2023-05-07T12:57:51;20.50;99.90
48860;DHT22;34679;51.436;-2.518;2023-05-07T13:00:32;19.80;99.90
48860;DHT22;34679;51.436;-2.518;2023-05-07T13:03:01;19.70;99.90
48860;DHT22;34679;51.436;-2.518;2023-05-07T13:05:27;20.10;99.90
48860;DHT22;34679;51.436;-2.518;2023-05-07T13:07:54;20.50;99.90
48860;DHT22;34679;51.436;-2.518;2023-05-07T13:10:21;20.90;99.90
48860;DHT22;34679;51.436;-2.518;2023-05-07T13:12:46;21.00;99.90
48860;DHT22;34679;51.436;-2.518;2023-05-07T13:15:12;21.10;99.90
48860;DHT22;34679;51.436;-2.518;2023-05-07T13:17:37;20.80;99.90
48860;DHT22;34679;51.436;-2.518;2023-05-07T13:20:04;20.90;99.90
48860;DHT22;34679;51.436;-2.518;2023-05-07T13:22:31;20.60;99.90
48860;DHT22;34679;51.436;-2.518;2023-05-07T13:24:57;20.00;99.90
48860;DHT22;34679;51.436;-2.518;2023-05-07T13:27:22;19.90;99.90
48860;DHT22;34679;51.436;-2.518;2023-05-07T13:29:48;20.10;99.90
48860;DHT22;34679;51.436;-2.518;2023-05-07T13:32:14;20.40;99.90
48860;DHT22;34679;51.436;-2.518;2023-05-07T13:34:39;20.30;99.90
48860;DHT22;34679;51.436;-2.518;2023-05-07T13:37:06;20.40;99.90
48860;DHT22;34679;51.436;-2.518;2023-05-07T13:39:33;20.60;99.90
48860;DHT22;34679;51.436;-2.518;2023-05-07T13:41:59;20.60;99.90
48860;DHT22;34679;51.436;-2.518;2023-05-07T13:44:25;20.30;99.90
48860;DHT22;34679;51.436;-2.518;2023-05-07T13:46:50;20.40;99.90
48860;DHT22;34679;51.436;-2.518;2023-05-07T13:49:16;20.50;99.90
48860;DHT22;34679;51.436;-2.518;2023-05-07T13:51:42;20.70;99.90
48860;DHT22;34679;51.436;-2.518;2023-05-07T13:54:08;20.20;99.90
48860;DHT22;34679;51.436;-2.518;2023-05-07T13:56:33;19.90;99.90
48860;DHT22;34679;51.436;-2.518;2023-05-07T13:58:59;20.10;99.90
48860;DHT22;34679;51.436;-2.518;2023-05-07T14:01:25;20.10;99.90
48860;DHT22;34679;51.436;-2.518;2023-05-07T14:03:50;19.90;99.90
48860;DHT22;34679;51.436;-2.518;2023-05-07T14:06:16;20.40;99.90
48860;DHT22;34679;51.436;-2.518;2023-05-07T14:08:42;20.70;99.90
48860;DHT22;34679;51.436;-2.518;2023-05-07T14:11:07;20.60;99.90
48860;DHT22;34679;51.436;-2.518;2023-05-07T14:13:33;20.40;99.90
48860;DHT22;34679;51.436;-2.518;2023-05-07T14:16:00;19.90;99.90
48860;DHT22;34679;51.436;-2.518;2023-05-07T14:18:27;19.30;99.90
48860;DHT22;34679;51.436;-2.518;2023-05-07T14:20:54;19.20;99.90
48860;DHT22;34679;51.436;-2.518;2023-05-07T14:23:20;19.10;99.90
48860;DHT22;34679;51.436;-2.518;2023-05-07T14:25:50;18.70;99.90
48860;DHT22;34679;51.436;-2.518;2023-05-07T14:28:16;19.00;99.90
48860;DHT22;34679;51.436;-2.518;2023-05-07T14:30:42;19.50;99.90
48860;DHT22;34679;51.436;-2.518;2023-05-07T14:33:07;19.80;99.90
48860;DHT22;34679;51.436;-2.518;2023-05-07T14:35:33;20.00;99.90
48860;DHT22;34679;51.436;-2.518;2023-05-07T14:37:59;20.20;99.90
48860;DHT22;34679;51.436;-2.518;2023-05-07T14:40:25;20.00;99.90
48860;DHT22;34679;51.436;-2.518;2023-05-07T14:42:50;19.90;99.90
48860;DHT22;34679;51.436;-2.518;2023-05-07T14:45:16;19.40;99.90
48860;DHT22;34679;51.436;-2.518;2023-05-07T14:47:42;19.10;99.90
48860;DHT22;34679;51.436;-2.518;2023-05-07T14:50:08;19.50;99.90
48860;DHT22;34679;51.436;-2.518;2023-05-07T14:52:34;19.50;99.90
48860;DHT22;34679;51.436;-2.518;2023-05-07T14:54:59;19.70;99.90
48860;DHT22;34679;51.436;-2.518;2023-05-07T14:57:25;19.60;99.90
48860;DHT22;34679;51.436;-2.518;2023-05-07T14:59:51;19.40;99.90
48860;DHT22;34679;51.436;-2.518;2023-05-07T15:02:17;19.80;99.90
48860;DHT22;34679;51.436;-2.518;2023-05-07T15:04:43;19.90;99.90
48860;DHT22;34679;51.436;-2.518;2023-05-07T15:07:12;19.80;99.90
48860;DHT22;34679;51.436;-2.518;2023-05-07T15:09:41;19.70;99.90
48860;DHT22;34679;51.436;-2.518;2023-05-07T15:12:08;19.70;99.90
48860;DHT22;34679;51.436;-2.518;2023-05-07T15:14:34;19.70;99.90
48860;DHT22;34679;51.436;-2.518;2023-05-07T15:17:00;19.70;99.90
48860;DHT22;34679;51.436;-2.518;2023-05-07T15:19:26;19.50;99.90
48860;DHT22;34679;51.436;-2.518;2023-05-07T15:21:59;19.60;99.90
48860;DHT22;34679;51.436;-2.518;2023-05-07T15:24:28;19.40;99.90
48860;DHT22;34679;51.436;-2.518;2023-05-07T15:26:54;19.30;99.90
48860;DHT22;34679;51.436;-2.518;2023-05-07T15:29:20;19.10;99.90
48860;DHT22;34679;51.436;-2.518;2023-05-07T15:31:45;18.80;99.90
48860;DHT22;34679;51.436;-2.518;2023-05-07T15:34:11;19.00;99.90
48860;DHT22;34679;51.436;-2.518;2023-05-07T15:36:37;19.10;99.90
48860;DHT22;34679;51.436;-2.518;2023-05-07T15:39:03;19.40;99.90